Time;durP1;ratioP1;P1;durP2;ratioP2;P2;SDS_P1;SDS_P2;PMS_P1;PMS_P2;Temp;Humidity;BMP_temperature;BMP_pressure;BME280_temperature;BME280_humidity;BME280_pressure;Samples;Min_cycle;Max_cycle;Signal;HPM_P1;HPM_P2
2023/12/02 00:00:46;;;;;;;1.02;1.02;;;;;;;-5.34;99.90;97897.53;4841866;29;20149;-80
2023/12/02 00:03:14;;;;;;;1.10;1.10;;;;;;;-5.33;100.00;97901.81;4858625;29;20061;-80
2023/12/02 00:05:41;;;;;;;0.93;0.93;;;;;;;-5.32;99.88;97900.78;4876730;29;20475;-80
2023/12/02 00:08:08;;;;;;;0.98;0.98;;;;;;;-5.33;100.00;97912.31;4879523;29;20057;-80
2023/12/02 00:10:35;;;;;;;0.90;0.90;;;;;;;-5.32;100.00;97913.94;4878853;29;20045;-81
2023/12/02 00:13:02;;;;;;;1.10;1.10;;;;;;;-5.34;99.96;97907.22;4879270;29;20088;-80
2023/12/02 00:15:30;;;;;;;1.23;1.17;;;;;;;-5.33;99.95;97919.41;4878794;29;20084;-80
2023/12/02 00:17:57;;;;;;;1.10;1.10;;;;;;;-5.34;99.50;97923.00;4879584;29;20138;-80
2023/12/02 00:20:24;;;;;;;1.25;1.20;;;;;;;-5.34;99.78;97925.63;4879731;29;20428;-80
2023/12/02 00:22:51;;;;;;;0.90;0.90;;;;;;;-5.36;99.59;97927.63;4879880;29;20057;-79
2023/12/02 00:25:19;;;;;;;0.80;0.80;;;;;;;-5.35;99.73;97927.44;4880994;29;20057;-80
2023/12/02 00:27:46;;;;;;;1.30;1.20;;;;;;;-5.39;99.46;97938.47;4880961;29;20108;-79
2023/12/02 00:30:14;;;;;;;0.90;0.90;;;;;;;-5.44;99.50;97936.38;4880996;29;20132;-79
2023/12/02 00:32:41;;;;;;;1.00;1.00;;;;;;;-5.48;99.58;97935.06;4880826;29;20052;-80
2023/12/02 00:35:08;;;;;;;1.02;1.02;;;;;;;-5.47;99.53;97931.41;4880881;29;20060;-79
2023/12/02 00:37:35;;;;;;;1.20;1.20;;;;;;;-5.48;99.68;97929.78;4880584;29;20049;-80
2023/12/02 00:40:03;;;;;;;1.00;1.00;;;;;;;-5.47;99.63;97931.41;4880776;29;20563;-79
2023/12/02 00:42:30;;;;;;;0.90;0.90;;;;;;;-5.46;99.48;97935.72;4880452;29;20053;-80
2023/12/02 00:44:57;;;;;;;0.90;0.90;;;;;;;-5.47;99.32;97934.06;4880865;29;20059;-80
2023/12/02 00:47:24;;;;;;;0.80;0.80;;;;;;;-5.47;99.34;97931.41;4880482;29;20049;-80
2023/12/02 00:49:52;;;;;;;0.98;0.98;;;;;;;-5.50;99.31;97937.03;4880711;29;20145;-80
2023/12/02 00:52:19;;;;;;;0.80;0.80;;;;;;;-5.48;99.52;97935.88;4880813;29;20053;-80
2023/12/02 00:54:46;;;;;;;0.90;0.90;;;;;;;-5.46;99.29;97936.53;4880648;29;20477;-81
2023/12/02 00:57:14;;;;;;;0.82;0.82;;;;;;;-5.51;99.17;97930.94;4879606;29;20136;-79
2023/12/02 00:59:41;;;;;;;0.95;0.95;;;;;;;-5.50;99.43;97931.78;4880221;29;20055;-80
2023/12/02 01:02:08;;;;;;;0.90;0.90;;;;;;;-5.51;99.13;97930.13;4880390;29;20121;-80
2023/12/02 01:04:35;;;;;;;1.00;1.00;;;;;;;-5.54;99.23;97927.84;4880000;29;20049;-80
2023/12/02 01:07:03;;;;;;;0.90;0.90;;;;;;;-5.55;99.16;97931.44;4880283;29;20060;-80
2023/12/02 01:09:30;;;;;;;1.10;1.10;;;;;;;-5.57;99.23;97931.63;4880131;29;20056;-80
2023/12/02 01:11:57;;;;;;;1.00;1.00;;;;;;;-5.52;99.27;97933.75;4880164;29;20136;-80
2023/12/02 01:14:25;;;;;;;1.02;1.02;;;;;;;-5.52;99.09;97946.88;4879990;29;20057;-80
2023/12/02 01:16:53;;;;;;;1.08;1.08;;;;;;;-5.51;98.95;97953.81;4879760;29;20104;-80
2023/12/02 01:19:21;;;;;;;1.05;1.05;;;;;;;-5.51;98.71;97945.91;4879719;29;20596;-79
2023/12/02 01:21:48;;;;;;;0.88;0.88;;;;;;;-5.50;98.56;97950.16;4879945;29;20049;-80
2023/12/02 01:24:16;;;;;;;1.00;1.00;;;;;;;-5.52;98.73;97952.16;4879975;29;20053;-81
2023/12/02 01:26:44;;;;;;;0.90;0.90;;;;;;;-5.53;98.43;97950.50;4879457;29;20085;-80
2023/12/02 01:29:11;;;;;;;0.90;0.90;;;;;;;-5.57;98.47;97949.19;4880213;29;20045;-80
2023/12/02 01:31:39;;;;;;;0.90;0.90;;;;;;;-5.60;98.41;97939.84;4879998;29;20049;-81
2023/12/02 01:34:06;;;;;;;1.05;1.05;;;;;;;-5.62;98.49;97944.47;4878790;29;20478;-81
2023/12/02 01:36:33;;;;;;;0.90;0.90;;;;;;;-5.59;98.68;97951.19;4879394;29;20536;-81
2023/12/02 01:39:00;;;;;;;1.10;1.10;;;;;;;-5.60;98.83;97952.16;4879772;29;20057;-80
2023/12/02 01:41:30;;;;;;;0.90;0.90;;;;;;;-5.62;98.67;97954.13;4879555;29;20052;-80
2023/12/02 01:43:58;;;;;;;0.90;0.90;;;;;;;-5.70;98.79;97950.56;4879866;29;20049;-80
2023/12/02 01:46:26;;;;;;;0.80;0.80;;;;;;;-5.70;98.79;97957.59;4879353;29;20075;-81
2023/12/02 01:48:54;;;;;;;1.20;1.20;;;;;;;-5.70;99.16;97961.06;4879481;29;20044;-81
2023/12/02 01:51:21;;;;;;;0.90;0.90;;;;;;;-5.68;99.09;97966.97;4879397;29;20056;-80
2023/12/02 01:53:48;;;;;;;0.70;0.70;;;;;;;-5.73;99.11;97963.19;4863012;29;20063;-81
2023/12/02 01:56:16;;;;;;;0.80;0.80;;;;;;;-5.76;98.99;97959.09;4879263;29;20105;-81
2023/12/02 01:58:43;;;;;;;0.90;0.90;;;;;;;-5.82;99.13;97954.50;4879635;29;20056;-81
2023/12/02 02:01:10;;;;;;;0.90;0.90;;;;;;;-5.82;99.47;97959.78;4879296;29;20053;-80
2023/12/02 02:03:38;;;;;;;0.90;0.90;;;;;;;-5.87;99.40;97951.56;4879038;29;20080;-81
2023/12/02 02:06:10;;;;;;;0.82;0.82;;;;;;;-5.88;99.39;97958.59;4879226;29;20147;-80
2023/12/02 02:08:37;;;;;;;0.88;0.88;;;;;;;-5.92;99.46;97961.75;4879023;29;20049;-80
2023/12/02 02:11:04;;;;;;;0.90;0.90;;;;;;;-5.92;99.85;97970.44;4879485;29;20053;-80
2023/12/02 02:13:31;;;;;;;0.90;0.90;;;;;;;-5.91;100.00;97969.44;4879180;29;20143;-79
2023/12/02 02:15:59;;;;;;;1.10;1.10;;;;;;;-5.94;100.00;97961.13;4879196;29;20053;-78
2023/12/02 02:18:28;;;;;;;0.77;0.77;;;;;;;-5.90;100.00;97965.00;4879050;29;20049;-80
2023/12/02 02:21:00;;;;;;;0.85;0.85;;;;;;;-5.85;100.00;97970.59;4878982;29;20159;-80
2023/12/02 02:23:27;;;;;;;1.05;1.05;;;;;;;-5.81;100.00;97979.78;4879773;29;20053;-82
2023/12/02 02:25:55;;;;;;;1.05;1.05;;;;;;;-5.82;100.00;97972.91;4879784;29;20055;-81
2023/12/02 02:28:24;;;;;;;0.80;0.80;;;;;;;-5.80;99.80;97976.16;4879221;29;20480;-80
2023/12/02 02:30:52;;;;;;;1.00;1.00;;;;;;;-5.83;99.67;97980.94;4893509;29;20068;-80
2023/12/02 02:33:20;;;;;;;0.95;0.95;;;;;;;-5.84;99.89;97980.13;4879042;29;20061;-80
2023/12/02 02:35:48;;;;;;;1.25;1.20;;;;;;;-5.82;99.97;97980.78;4878796;29;20045;-81
2023/12/02 02:38:15;;;;;;;1.10;1.10;;;;;;;-5.83;99.83;97986.19;4877589;29;20057;-79
2023/12/02 02:40:42;;;;;;;1.00;1.00;;;;;;;-5.87;99.77;97985.72;4877502;29;20053;-79
2023/12/02 02:43:11;;;;;;;0.82;0.82;;;;;;;-5.85;99.99;97986.34;4878973;29;20415;-80
2023/12/02 02:45:38;;;;;;;0.77;0.77;;;;;;;-5.79;100.00;97998.84;4878578;29;20049;-80
2023/12/02 02:48:05;;;;;;;0.90;0.90;;;;;;;-5.79;100.00;97998.84;4878799;29;20072;-79
2023/12/02 02:50:33;;;;;;;1.00;1.00;;;;;;;-5.77;99.94;98004.78;4878529;29;20053;-79
2023/12/02 02:53:00;;;;;;;1.10;1.10;;;;;;;-5.76;99.69;98001.16;4878528;29;20063;-79
2023/12/02 02:55:27;;;;;;;1.17;1.17;;;;;;;-5.77;99.72;97999.50;4878597;29;20053;-78
2023/12/02 02:57:55;;;;;;;0.82;0.82;;;;;;;-5.81;99.58;98005.25;4877507;29;20055;-79
2023/12/02 03:00:23;;;;;;;0.90;0.90;;;;;;;-5.79;100.00;98008.56;4878195;29;20045;-79
2023/12/02 03:02:50;;;;;;;1.10;1.10;;;;;;;-5.82;99.88;97999.19;4878459;29;20537;-80
2023/12/02 03:05:17;;;;;;;0.93;0.93;;;;;;;-5.86;100.00;98010.19;4878396;29;20088;-80
2023/12/02 03:07:45;;;;;;;0.90;0.90;;;;;;;-5.86;100.00;98007.56;4878839;29;20056;-79
2023/12/02 03:10:12;;;;;;;1.00;1.00;;;;;;;-5.86;99.90;98013.63;4878402;29;20053;-79
2023/12/02 03:12:39;;;;;;;0.80;0.80;;;;;;;-5.85;100.00;98012.63;4878104;29;20087;-79
2023/12/02 03:15:07;;;;;;;0.70;0.70;;;;;;;-5.89;99.93;98006.09;4878324;29;20049;-80
2023/12/02 03:17:34;;;;;;;0.90;0.90;;;;;;;-5.92;99.86;98009.06;4877943;29;20105;-80
2023/12/02 03:20:01;;;;;;;1.05;1.05;;;;;;;-5.94;100.00;98008.41;4878117;29;20068;-79
2023/12/02 03:22:31;;;;;;;1.02;1.02;;;;;;;-5.93;99.94;98029.22;4877973;29;20053;-80
2023/12/02 03:24:58;;;;;;;0.93;0.93;;;;;;;-5.90;99.93;98028.06;4878277;29;20489;-81
2023/12/02 03:27:25;;;;;;;0.82;0.82;;;;;;;-5.88;100.00;98032.19;4877710;29;20053;-80
2023/12/02 03:29:53;;;;;;;1.10;1.10;;;;;;;-5.89;99.95;98032.38;4876808;29;20045;-81
2023/12/02 03:32:20;;;;;;;0.93;0.93;;;;;;;-5.89;100.00;98030.56;4876300;29;20081;-80
2023/12/02 03:34:47;;;;;;;1.10;1.10;;;;;;;-5.94;100.00;98034.69;4877399;29;20152;-80
2023/12/02 03:37:14;;;;;;;1.10;1.10;;;;;;;-5.98;100.00;98026.28;4877652;29;20049;-79
2023/12/02 03:39:42;;;;;;;1.00;1.00;;;;;;;-5.95;100.00;98033.03;4875338;29;20598;-80
2023/12/02 03:42:09;;;;;;;0.90;0.90;;;;;;;-5.96;100.00;98032.22;4877780;29;20512;-80
2023/12/02 03:44:36;;;;;;;0.85;0.85;;;;;;;-5.92;100.00;98037.94;4876354;29;20052;-80
2023/12/02 03:47:03;;;;;;;0.75;0.75;;;;;;;-5.89;100.00;98043.69;4877720;29;20057;-78
2023/12/02 03:49:30;;;;;;;1.00;1.00;;;;;;;-5.88;99.99;98041.88;4877493;29;20145;-80
2023/12/02 03:51:59;;;;;;;0.85;0.85;;;;;;;-5.85;99.96;98045.97;4876647;29;20064;-80
2023/12/02 03:54:26;;;;;;;1.20;1.17;;;;;;;-5.88;99.94;98050.56;4877675;29;20158;-80
2023/12/02 03:56:54;;;;;;;1.00;1.00;;;;;;;-5.88;99.75;98052.38;4877987;29;20053;-80
2023/12/02 03:59:21;;;;;;;0.80;0.80;;;;;;;-5.84;99.74;98064.22;4877707;29;20049;-79
2023/12/02 04:01:48;;;;;;;0.93;0.93;;;;;;;-5.87;98.91;98059.31;4878507;29;20057;-80
2023/12/02 04:04:16;;;;;;;0.77;0.77;;;;;;;-5.90;98.68;98072.75;4878366;29;20059;-81
2023/12/02 04:06:44;;;;;;;0.90;0.90;;;;;;;-5.96;98.63;98066.38;4878825;29;20053;-81
2023/12/02 04:09:11;;;;;;;0.82;0.82;;;;;;;-5.98;98.72;98075.41;4878161;29;20059;-81
2023/12/02 04:11:38;;;;;;;0.90;0.90;;;;;;;-6.06;98.43;98080.66;4874164;29;20064;-80
2023/12/02 04:14:06;;;;;;;0.98;0.98;;;;;;;-6.14;98.44;98091.97;4883698;29;20053;-79
2023/12/02 04:16:33;;;;;;;1.10;1.10;;;;;;;-6.21;98.99;98090.97;4882710;29;20521;-80
2023/12/02 04:19:01;;;;;;;1.05;1.05;;;;;;;-6.23;98.89;98095.53;4895914;29;20660;-82
2023/12/02 04:21:28;;;;;;;1.10;1.10;;;;;;;-6.29;99.04;98096.19;4892046;29;20068;-83
2023/12/02 04:23:55;;;;;;;0.70;0.70;;;;;;;-6.30;99.31;98100.63;4888784;29;20102;-81
2023/12/02 04:26:23;;;;;;;0.90;0.90;;;;;;;-6.36;99.12;98094.19;4895568;29;20057;-80
2023/12/02 04:28:50;;;;;;;0.98;0.98;;;;;;;-6.33;99.15;98095.66;4891705;29;20049;-79
2023/12/02 04:31:17;;;;;;;0.82;0.82;;;;;;;-6.32;99.14;98095.53;4896371;29;20049;-80
2023/12/02 04:33:45;;;;;;;1.10;1.10;;;;;;;-6.29;99.18;98104.88;4889299;29;20188;-79
2023/12/02 04:36:14;;;;;;;0.95;0.95;;;;;;;-6.32;99.16;98097.34;4893070;29;20495;-78
2023/12/02 04:38:41;;;;;;;0.98;0.98;;;;;;;-6.30;99.43;98111.13;4896674;29;20100;-80
2023/12/02 04:41:08;;;;;;;0.90;0.90;;;;;;;-6.26;99.68;98101.13;4897956;29;20052;-81
2023/12/02 04:43:35;;;;;;;0.82;0.82;;;;;;;-6.24;99.52;98101.78;4893212;29;20486;-80
2023/12/02 04:46:05;;;;;;;0.90;0.90;;;;;;;-6.27;99.44;98102.13;4901550;29;20116;-82
2023/12/02 04:48:33;;;;;;;0.98;0.98;;;;;;;-6.26;99.60;98109.00;4899225;29;20052;-81
2023/12/02 04:51:01;;;;;;;0.88;0.88;;;;;;;-6.20;99.86;98113.59;4896230;29;20056;-80
2023/12/02 04:53:28;;;;;;;0.82;0.82;;;;;;;-6.16;99.64;98115.75;4897992;29;20056;-81
2023/12/02 04:55:55;;;;;;;0.90;0.90;;;;;;;-6.21;99.63;98107.53;4894343;29;20057;-80
2023/12/02 04:58:22;;;;;;;1.00;1.00;;;;;;;-6.17;99.62;98108.88;4885438;29;20481;-81
2023/12/02 05:00:49;;;;;;;0.90;0.90;;;;;;;-6.16;99.67;98109.69;4879864;29;20140;-78
2023/12/02 05:03:17;;;;;;;0.95;0.95;;;;;;;-6.13;99.67;98107.56;4879739;29;20576;-80
2023/12/02 05:05:45;;;;;;;0.77;0.77;;;;;;;-6.12;99.67;98111.00;4876188;29;20505;-80
2023/12/02 05:08:13;;;;;;;0.95;0.95;;;;;;;-6.12;99.58;98111.00;4862036;29;20080;-80
2023/12/02 05:10:40;;;;;;;1.10;1.10;;;;;;;-6.11;99.45;98121.34;4880707;29;20045;-80
2023/12/02 05:13:07;;;;;;;1.05;1.05;;;;;;;-6.11;99.50;98123.97;4880733;29;20424;-80
2023/12/02 05:15:34;;;;;;;0.90;0.90;;;;;;;-6.11;99.20;98137.09;4880308;29;20108;-79
2023/12/02 05:18:02;;;;;;;0.90;0.90;;;;;;;-6.05;99.31;98134.81;4880469;29;20059;-80
2023/12/02 05:20:30;;;;;;;0.93;0.93;;;;;;;-6.05;99.32;98143.56;4880195;29;20064;-80
2023/12/02 05:22:57;;;;;;;0.98;0.98;;;;;;;-6.04;99.12;98133.84;4541791;29;10001186;-79
2023/12/02 05:25:25;;;;;;;1.00;1.00;;;;;;;-6.06;99.08;98141.06;4875000;29;20156;-79
2023/12/02 05:27:53;;;;;;;0.82;0.82;;;;;;;-6.08;99.28;98154.34;4876577;29;20194;-78
2023/12/02 05:30:20;;;;;;;0.90;0.90;;;;;;;-6.07;99.44;98165.72;4875853;29;20056;-79
2023/12/02 05:32:48;;;;;;;0.90;0.90;;;;;;;-6.06;99.36;98159.47;4876847;29;20056;-79
2023/12/02 05:35:15;;;;;;;1.25;1.17;;;;;;;-6.09;99.38;98168.47;4876064;29;20057;-80
2023/12/02 05:37:42;;;;;;;0.93;0.93;;;;;;;-6.09;99.19;98162.41;4876445;29;20045;-80
2023/12/02 05:40:10;;;;;;;0.90;0.90;;;;;;;-6.06;99.14;98170.78;4875111;29;20539;-79
2023/12/02 05:42:38;;;;;;;0.70;0.70;;;;;;;-6.08;99.43;98175.38;4874867;29;20108;-79
2023/12/02 05:45:06;;;;;;;0.90;0.90;;;;;;;-6.07;99.32;98170.97;4876565;29;20072;-79
2023/12/02 05:47:33;;;;;;;0.90;0.90;;;;;;;-6.05;99.54;98179.47;4875915;29;20603;-80
2023/12/02 05:50:01;;;;;;;0.93;0.93;;;;;;;-5.98;99.71;98185.75;4876122;29;20052;-79
2023/12/02 05:52:31;;;;;;;0.85;0.85;;;;;;;-5.99;99.69;98189.38;4876095;29;20061;-79
2023/12/02 05:54:58;;;;;;;1.02;1.02;;;;;;;-5.98;99.61;98191.00;4876193;29;20057;-80
2023/12/02 05:57:25;;;;;;;1.10;1.10;;;;;;;-5.94;99.56;98189.72;4875748;29;20084;-79
2023/12/02 05:59:52;;;;;;;0.90;0.90;;;;;;;-5.91;99.49;98192.81;4875917;29;20569;-79
2023/12/02 06:02:19;;;;;;;1.05;1.05;;;;;;;-5.93;99.18;98204.47;4873346;29;20075;-79
2023/12/02 06:04:46;;;;;;;0.90;0.90;;;;;;;-5.95;99.01;98211.69;4875803;29;20551;-79
2023/12/02 06:07:13;;;;;;;1.00;1.00;;;;;;;-6.00;99.13;98203.47;4874729;29;20061;-79
2023/12/02 06:09:46;;;;;;;0.93;0.93;;;;;;;-5.99;99.18;98208.59;4875831;29;20049;-79
2023/12/02 06:12:13;;;;;;;1.00;1.00;;;;;;;-5.96;99.15;98220.59;4875830;29;20053;-78
2023/12/02 06:14:40;;;;;;;1.20;1.20;;;;;;;-5.93;99.55;98220.22;4875933;29;20424;-79
2023/12/02 06:17:08;;;;;;;0.95;0.95;;;;;;;-5.90;99.38;98225.16;4875283;29;20881;-79
2023/12/02 06:19:36;;;;;;;0.88;0.88;;;;;;;-5.83;99.33;98230.59;4874769;29;20065;-79
2023/12/02 06:22:03;;;;;;;0.82;0.82;;;;;;;-5.93;99.31;98231.56;4887497;29;20048;-80
2023/12/02 06:24:30;;;;;;;0.90;0.90;;;;;;;-5.86;99.56;98239.63;4879675;29;20045;-80
2023/12/02 06:26:57;;;;;;;0.90;0.90;;;;;;;-5.85;99.48;98233.38;4875881;29;20056;-80
2023/12/02 06:29:25;;;;;;;1.00;1.00;;;;;;;-5.84;99.18;98231.59;4874646;29;20059;-79
2023/12/02 06:31:56;;;;;;;0.80;0.80;;;;;;;-5.81;99.68;98229.47;4873829;29;20053;-79
2023/12/02 06:34:23;;;;;;;0.90;0.90;;;;;;;-5.75;99.52;98225.38;4874980;29;20056;-81
2023/12/02 06:36:52;;;;;;;0.80;0.80;;;;;;;-5.70;99.42;98217.84;4874376;29;20060;-81
2023/12/02 06:39:21;;;;;;;1.00;1.00;;;;;;;-5.69;99.11;98217.69;4875639;29;20151;-81
2023/12/02 06:41:48;;;;;;;0.82;0.82;;;;;;;-5.62;99.28;98219.66;4876067;29;20075;-81
2023/12/02 06:44:17;;;;;;;0.82;0.82;;;;;;;-5.57;98.82;98227.88;4876726;29;20428;-81
2023/12/02 06:46:45;;;;;;;0.90;0.90;;;;;;;-5.54;98.72;98235.47;4878703;29;20112;-81
2023/12/02 06:49:12;;;;;;;1.08;1.08;;;;;;;-5.55;98.41;98239.88;4878539;29;20105;-78
2023/12/02 06:51:39;;;;;;;0.98;0.98;;;;;;;-5.55;98.35;98244.31;4878375;29;20052;-80
2023/12/02 06:54:10;;;;;;;0.85;0.85;;;;;;;-5.55;98.62;98239.88;4878299;29;20057;-81
2023/12/02 06:56:37;;;;;;;1.13;1.13;;;;;;;-5.50;98.22;98242.03;4878561;29;20428;-80
2023/12/02 06:59:05;;;;;;;0.70;0.70;;;;;;;-5.45;98.23;98253.72;4893367;29;20152;-80
2023/12/02 07:01:32;;;;;;;1.00;1.00;;;;;;;-5.45;98.01;98245.81;4888852;29;20049;-80
2023/12/02 07:04:00;;;;;;;0.90;0.90;;;;;;;-5.44;98.03;98259.81;4886426;29;20555;-80
2023/12/02 07:06:28;;;;;;;0.73;0.73;;;;;;;-5.42;98.06;98270.97;4897116;29;20617;-81
2023/12/02 07:08:56;;;;;;;1.13;1.13;;;;;;;-5.41;98.01;98274.44;4896813;29;20048;-80
2023/12/02 07:11:24;;;;;;;1.27;1.17;;;;;;;-5.40;97.80;98276.91;4896576;29;20063;-80
2023/12/02 07:13:51;;;;;;;0.90;0.90;;;;;;;-5.40;97.46;98268.19;4896830;29;20045;-80
2023/12/02 07:16:18;;;;;;;1.02;1.02;;;;;;;-5.38;97.70;98269.69;4896662;29;20052;-82
2023/12/02 07:18:45;;;;;;;1.10;1.10;;;;;;;-5.43;97.41;98266.72;4896569;29;20048;-81
2023/12/02 07:21:14;;;;;;;1.00;1.00;;;;;;;-5.42;97.19;98278.88;4896785;29;20153;-81
2023/12/02 07:23:44;;;;;;;0.90;0.90;;;;;;;-5.41;97.24;98284.97;4898023;29;20052;-82
2023/12/02 07:26:12;;;;;;;1.00;1.00;;;;;;;-5.41;97.21;98291.06;4897698;29;20559;-80
2023/12/02 07:28:40;;;;;;;1.05;1.05;;;;;;;-5.40;97.12;98295.31;4896951;29;20107;-81
2023/12/02 07:31:17;;;;;;;1.00;1.00;;;;;;;-5.31;97.15;98304.88;4893190;29;20049;-80
2023/12/02 07:33:44;;;;;;;0.70;0.70;;;;;;;-5.32;96.99;98300.59;4878411;29;20113;-80
2023/12/02 07:36:13;;;;;;;1.00;1.00;;;;;;;-5.23;97.35;98310.16;4877456;29;20508;-80
2023/12/02 07:38:43;;;;;;;0.90;0.90;;;;;;;-5.11;97.23;98320.41;4894508;29;20120;-79
2023/12/02 07:41:10;;;;;;;0.98;0.98;;;;;;;-4.98;97.11;98318.09;4896140;29;20496;-81
2023/12/02 07:43:37;;;;;;;1.15;1.15;;;;;;;-4.87;96.69;98333.56;4895955;29;20051;-80
2023/12/02 07:46:05;;;;;;;0.98;0.98;;;;;;;-4.97;96.03;98327.63;4895754;29;20468;-80
2023/12/02 07:48:33;;;;;;;1.10;1.10;;;;;;;-4.99;96.06;98341.94;4895940;29;20568;-81
2023/12/02 07:51:03;;;;;;;0.90;0.90;;;;;;;-5.06;95.95;98349.69;4896039;29;20055;-79
2023/12/02 07:53:31;;;;;;;1.20;1.20;;;;;;;-5.04;95.67;98347.69;4896146;29;20054;-80
2023/12/02 07:55:58;;;;;;;0.93;0.93;;;;;;;-5.03;95.87;98339.63;4895518;29;20052;-80
2023/12/02 07:58:26;;;;;;;1.17;1.17;;;;;;;-5.06;96.05;98352.31;4884341;29;20084;-81
2023/12/02 08:00:53;;;;;;;0.98;0.98;;;;;;;-4.96;96.21;98355.63;4876140;29;20052;-81
2023/12/02 08:03:20;;;;;;;1.00;1.00;;;;;;;-4.81;95.95;98361.06;4880641;29;20052;-81
2023/12/02 08:05:51;;;;;;;1.10;1.10;;;;;;;-4.76;95.38;98361.41;4877764;29;20049;-81
2023/12/02 08:08:18;;;;;;;1.10;1.10;;;;;;;-4.71;94.96;98366.16;4876087;29;20113;-82
2023/12/02 08:10:47;;;;;;;0.95;0.95;;;;;;;-4.77;94.97;98361.56;4877406;29;20061;-82
2023/12/02 08:13:14;;;;;;;0.98;0.98;;;;;;;-4.77;94.79;98364.19;4877392;29;20076;-82
2023/12/02 08:15:41;;;;;;;1.20;1.17;;;;;;;-4.69;94.41;98367.66;4876360;29;20473;-81
2023/12/02 08:18:09;;;;;;;1.10;1.10;;;;;;;-4.72;94.32;98357.44;4877483;29;20053;-82
2023/12/02 08:20:36;;;;;;;1.30;1.20;;;;;;;-4.73;93.89;98370.81;4877209;29;20053;-83
2023/12/02 08:23:03;;;;;;;1.15;1.13;;;;;;;-4.71;94.23;98366.16;4877247;29;20056;-82
2023/12/02 08:25:30;;;;;;;1.05;1.05;;;;;;;-4.62;94.39;98365.19;4876927;29;20473;-83
2023/12/02 08:27:58;;;;;;;1.15;1.15;;;;;;;-4.49;94.21;98381.34;4881339;29;20068;-82
2023/12/02 08:30:27;;;;;;;1.00;1.00;;;;;;;-4.41;94.33;98394.50;4881157;29;20053;-82
2023/12/02 08:32:54;;;;;;;1.05;1.05;;;;;;;-4.42;93.46;98390.22;4881093;29;20109;-83
2023/12/02 08:35:21;;;;;;;1.25;1.20;;;;;;;-4.45;93.39;98387.94;4880428;29;20064;-83
2023/12/02 08:37:48;;;;;;;1.00;1.00;;;;;;;-4.45;92.56;98392.38;4881109;29;20049;-83
2023/12/02 08:40:16;;;;;;;1.08;1.08;;;;;;;-4.53;91.96;98387.09;4881044;29;20101;-82
2023/12/02 08:42:44;;;;;;;1.05;1.05;;;;;;;-4.51;91.47;98400.94;4875368;29;20050;-82
2023/12/02 08:45:11;;;;;;;1.00;1.00;;;;;;;-4.52;91.79;98396.66;4862784;29;20140;-83
2023/12/02 08:47:39;;;;;;;1.20;1.20;;;;;;;-4.62;90.99;98395.00;4862111;29;20058;-83
2023/12/02 08:50:07;;;;;;;1.30;1.20;;;;;;;-4.62;91.04;98404.69;4860741;29;20049;-83
2023/12/02 08:52:34;;;;;;;1.25;1.20;;;;;;;-4.66;90.73;98406.84;4860797;29;20053;-82
2023/12/02 08:55:01;;;;;;;1.20;1.20;;;;;;;-4.60;90.92;98413.28;4875954;29;20532;-82
2023/12/02 08:57:32;;;;;;;1.20;1.15;;;;;;;-4.57;90.67;98403.22;4880684;29;20084;-82
2023/12/02 08:59:59;;;;;;;1.15;1.15;;;;;;;-4.50;90.20;98407.84;4880437;29;20053;-82
2023/12/02 09:02:26;;;;;;;1.10;1.10;;;;;;;-4.47;89.91;98408.34;4881853;29;20251;-83
2023/12/02 09:04:53;;;;;;;1.05;1.05;;;;;;;-4.49;89.19;98401.59;4881340;29;20057;-82
2023/12/02 09:07:20;;;;;;;0.93;0.93;;;;;;;-4.53;89.33;98403.75;4881171;29;20091;-82
2023/12/02 09:09:50;;;;;;;1.10;1.10;;;;;;;-4.43;88.81;98408.81;4880802;29;20140;-83
2023/12/02 09:12:18;;;;;;;1.10;1.10;;;;;;;-4.43;87.78;98403.56;4880589;29;20484;-83
2023/12/02 09:14:45;;;;;;;1.10;1.10;;;;;;;-4.31;87.41;98418.06;4896836;29;20188;-83
2023/12/02 09:17:41;;;;;;;1.08;1.08;;;;;;;-4.18;86.94;98410.50;4897631;29;20087;-83
2023/12/02 09:20:27;;;;;;;1.13;1.10;;;;;;;-4.05;85.96;98423.19;4898991;29;20091;-83
2023/12/02 09:23:00;;;;;;;1.10;1.10;;;;;;;-3.81;85.73;98429.41;4899250;29;20089;-84
2023/12/02 09:25:28;;;;;;;1.30;1.20;;;;;;;-3.54;85.23;98431.69;4884269;29;20061;-84
2023/12/02 09:28:05;;;;;;;1.50;1.40;;;;;;;-3.47;84.09;98428.34;4882872;29;20057;-83
2023/12/02 09:30:34;;;;;;;1.67;1.58;;;;;;;-1.92;81.52;98418.72;4880618;29;20080;-83
2023/12/02 09:33:04;;;;;;;1.70;1.60;;;;;;;-1.16;79.15;98416.81;4880276;29;20060;-83
2023/12/02 09:35:32;;;;;;;1.60;1.50;;;;;;;-0.23;75.68;98409.88;4874790;29;20117;-83
2023/12/02 09:38:02;;;;;;;1.70;1.60;;;;;;;0.15;70.92;98414.91;4898487;29;20055;-83
2023/12/02 09:40:57;;;;;;;1.55;1.45;;;;;;;0.52;68.98;98415.59;4898488;29;20057;-83
2023/12/02 09:43:39;;;;;;;1.90;1.80;;;;;;;0.97;67.07;98424.84;4898968;29;20056;-83
2023/12/02 09:46:26;;;;;;;1.65;1.55;;;;;;;0.87;64.87;98413.75;4898079;29;20053;-82
2023/12/02 09:49:10;;;;;;;1.70;1.60;;;;;;;1.03;64.53;98420.59;4898590;29;20049;-81
2023/12/02 09:52:29;;;;;;;1.70;1.60;;;;;;;1.61;63.69;98428.97;4880778;29;20144;-82
2023/12/02 09:55:28;;;;;;;1.60;1.50;;;;;;;1.72;61.52;98433.72;4840174;29;20069;-81
2023/12/02 09:58:16;;;;;;;1.50;1.40;;;;;;;1.42;60.98;98419.94;4820632;29;20060;-80
2023/12/02 10:00:56;;;;;;;1.73;1.63;;;;;;;1.70;60.06;98430.44;4839804;29;20061;-80
2023/12/02 10:03:47;;;;;;;1.17;1.17;;;;;;;1.37;60.46;98424.19;4840019;29;20142;-79
2023/12/02 10:07:09;;;;;;;1.10;1.10;;;;;;;0.55;62.13;98421.34;4826840;29;20057;-80
2023/12/02 10:09:44;;;;;;;1.40;1.30;;;;;;;-0.73;65.17;98430.19;4765530;30;20542;-80
2023/12/02 10:12:26;;;;;;;1.40;1.30;;;;;;;-0.15;64.39;98430.16;4782855;30;20060;-79
2023/12/02 10:15:01;;;;;;;1.70;1.60;;;;;;;-0.07;64.87;98428.22;4774699;30;20082;-80
2023/12/02 10:17:40;;;;;;;1.70;1.60;;;;;;;0.12;63.31;98428.56;4768150;30;20534;-81
2023/12/02 10:20:11;;;;;;;1.40;1.30;;;;;;;-0.63;64.92;98428.06;4777889;30;20059;-82
2023/12/02 10:22:46;;;;;;;1.17;1.17;;;;;;;-0.77;65.56;98432.38;4766812;30;20479;-81
2023/12/02 10:25:27;;;;;;;1.40;1.30;;;;;;;-1.59;67.37;98446.53;4754283;30;20060;-81
2023/12/02 10:28:05;;;;;;;1.13;1.13;;;;;;;-2.20;69.34;98451.84;4754002;30;20141;-82
2023/12/02 10:30:38;;;;;;;1.08;1.08;;;;;;;-2.25;71.17;98459.50;4791148;29;20186;-80
2023/12/02 10:33:27;;;;;;;1.35;1.25;;;;;;;-2.36;71.82;98462.50;4821179;29;20054;-81
2023/12/02 10:36:05;;;;;;;1.30;1.20;;;;;;;-2.56;72.43;98461.31;4830505;29;20061;-80
2023/12/02 10:38:54;;;;;;;1.40;1.30;;;;;;;-2.70;73.30;98461.06;4826754;29;20073;-80
2023/12/02 10:41:45;;;;;;;1.10;1.10;;;;;;;-2.90;74.54;98465.94;4832244;29;20054;-80
2023/12/02 10:44:16;;;;;;;1.20;1.20;;;;;;;-2.90;75.14;98463.31;4864863;29;20052;-80
2023/12/02 10:46:44;;;;;;;1.27;1.20;;;;;;;-2.87;75.62;98470.06;4875708;29;20059;-81
2023/12/02 10:49:15;;;;;;;1.08;1.08;;;;;;;-2.79;75.60;98467.38;4878988;29;20056;-80
2023/12/02 10:51:43;;;;;;;1.17;1.17;;;;;;;-2.77;75.61;98473.31;4879981;29;20523;-79
2023/12/02 10:54:15;;;;;;;1.40;1.30;;;;;;;-2.53;75.06;98474.19;4876903;29;20072;-80
2023/12/02 10:56:45;;;;;;;1.17;1.17;;;;;;;-2.44;74.61;98479.25;4537902;29;9999970;-79
2023/12/02 10:59:13;;;;;;;1.48;1.38;;;;;;;-2.42;74.42;98479.09;4873662;29;20170;-79
2023/12/02 11:02:25;;;;;;;1.35;1.25;;;;;;;-1.80;73.94;98472.84;4875327;29;20053;-80
2023/12/02 11:05:03;;;;;;;1.80;1.70;;;;;;;-0.82;70.72;98468.38;4873441;29;20626;-80
2023/12/02 11:07:32;;;;;;;1.70;1.60;;;;;;;0.46;66.56;98477.44;4872740;29;20141;-79
2023/12/02 11:10:09;;;;;;;1.38;1.27;;;;;;;0.82;63.34;98480.75;4873328;29;20053;-79
2023/12/02 11:12:51;;;;;;;1.65;1.55;;;;;;;1.32;61.67;98485.97;4873840;29;20049;-80
2023/12/02 11:15:23;;;;;;;1.48;1.38;;;;;;;1.41;59.60;98491.91;4873314;29;20521;-80
2023/12/02 11:18:03;;;;;;;1.60;1.50;;;;;;;1.64;58.45;98487.09;4874271;29;20057;-80
2023/12/02 11:20:43;;;;;;;1.40;1.30;;;;;;;0.67;58.54;98487.19;4873542;29;20093;-79
2023/12/02 11:23:19;;;;;;;1.00;1.00;;;;;;;-1.09;62.80;98497.16;4873510;29;20595;-80
2023/12/02 11:25:50;;;;;;;1.10;1.10;;;;;;;-1.62;65.43;98501.63;4872759;29;20084;-80
2023/12/02 11:28:28;;;;;;;1.10;1.10;;;;;;;-1.94;67.03;98494.81;4874612;29;20065;-79
2023/12/02 11:31:28;;;;;;;1.10;1.10;;;;;;;-2.27;68.11;98508.25;4872950;29;20144;-79
2023/12/02 11:34:12;;;;;;;1.10;1.10;;;;;;;-2.54;69.27;98502.44;4874550;29;20057;-79
2023/12/02 11:37:00;;;;;;;1.20;1.20;;;;;;;-2.72;69.63;98509.78;4873679;29;20088;-83
2023/12/02 11:39:40;;;;;;;1.25;1.17;;;;;;;-2.92;69.89;98509.38;4844615;29;20755;-78
2023/12/02 11:42:10;;;;;;;1.02;1.02;;;;;;;-2.98;70.24;98508.22;4878436;29;20057;-80
2023/12/02 11:44:56;;;;;;;1.05;1.05;;;;;;;-3.16;70.86;98503.16;4876312;29;20053;-80
2023/12/02 11:47:32;;;;;;;1.10;1.10;;;;;;;-3.24;71.21;98521.66;4876753;29;20060;-80